createdAt,value
2022-11-05T00:02:32.566Z,9.61
2022-11-05T00:05:18.158Z,9.76
2022-11-05T00:08:08.253Z,9.42
2022-11-05T00:10:38.094Z,9.52
2022-11-05T00:13:25.706Z,9.78
2022-11-05T00:16:11.917Z,9.57
2022-11-05T00:18:39.858Z,9.68
2022-11-05T00:21:28.079Z,9.78
2022-11-05T00:24:14.787Z,9.97
2022-11-05T00:26:42.593Z,9.77
2022-11-05T00:29:10.356Z,9.69
2022-11-05T00:31:38.168Z,9.90
2022-11-05T00:34:05.996Z,10.02
2022-11-05T00:36:33.821Z,9.53
2022-11-05T00:39:03.040Z,9.89
2022-11-05T00:41:30.879Z,9.79
2022-11-05T00:44:18.524Z,9.78
2022-11-05T00:46:46.428Z,9.88
2022-11-05T00:49:31.596Z,10.04
2022-11-05T00:52:20.078Z,9.92
2022-11-05T00:54:49.207Z,9.83
2022-11-05T00:57:16.988Z,9.92
2022-11-05T00:59:44.848Z,10.12
2022-11-05T01:02:12.887Z,10.00
2022-11-05T01:04:40.700Z,9.95
2022-11-05T01:07:08.559Z,9.79
2022-11-05T01:09:36.478Z,9.88
2022-11-05T01:12:05.912Z,9.95
2022-11-05T01:14:33.722Z,9.88
2022-11-05T01:17:01.643Z,10.11
2022-11-05T01:19:32.904Z,10.15
2022-11-05T01:22:01.023Z,10.20
2022-11-05T01:24:28.963Z,10.02
2022-11-05T01:26:57.044Z,10.12
2022-11-05T01:29:30.075Z,10.04
2022-11-05T01:31:58.322Z,10.13
2022-11-05T01:34:26.100Z,10.13
2022-11-05T01:36:53.891Z,9.90
2022-11-05T01:39:21.698Z,9.87
2022-11-05T01:41:49.502Z,10.01
2022-11-05T01:44:54.054Z,9.72
2022-11-05T01:47:30.934Z,9.93
2022-11-05T01:50:03.770Z,9.77
2022-11-05T01:52:33.487Z,9.64
2022-11-05T01:55:01.512Z,9.87
2022-11-05T01:57:30.394Z,9.54
2022-11-05T02:00:02.625Z,9.60
2022-11-05T02:02:41.068Z,9.56
2022-11-05T02:05:13.424Z,9.64
2022-11-05T02:07:41.581Z,9.41
2022-11-05T02:10:11.196Z,9.45
2022-11-05T02:12:42.520Z,9.31
2022-11-05T02:15:13.885Z,9.60
2022-11-05T02:17:52.731Z,9.50
2022-11-05T02:20:29.522Z,9.59
2022-11-05T02:23:30.709Z,9.45
2022-11-05T02:26:31.243Z,9.29
2022-11-05T02:29:22.691Z,9.33
2022-11-05T02:31:58.433Z,9.44
2022-11-05T02:34:35.270Z,9.28
2022-11-05T02:37:09.682Z,9.29
2022-11-05T02:39:48.153Z,9.22
2022-11-05T02:42:30.163Z,9.51
2022-11-05T02:45:06.971Z,9.63
2022-11-05T02:47:44.619Z,9.52
2022-11-05T02:50:24.595Z,9.40
2022-11-05T02:57:15.280Z,9.77
2022-11-05T02:59:43.151Z,9.41
2022-11-05T03:02:11.154Z,9.51
2022-11-05T03:04:40.546Z,9.39
2022-11-05T03:07:24.610Z,9.42
2022-11-05T03:10:18.253Z,9.54
2022-11-05T03:12:58.031Z,9.43
2022-11-05T03:15:40.607Z,9.34
2022-11-05T03:18:15.892Z,9.39
2022-11-05T03:20:51.350Z,9.32
2022-11-05T03:23:28.725Z,9.67
2022-11-05T03:26:01.092Z,9.66
2022-11-05T03:28:32.390Z,9.81
2022-11-05T03:31:00.873Z,9.82
2022-11-05T03:33:32.423Z,9.88
2022-11-05T03:36:06.295Z,9.93
2022-11-05T03:38:36.011Z,10.11
2022-11-05T03:41:08.685Z,10.09
2022-11-05T03:43:39.399Z,9.89
2022-11-05T03:46:10.623Z,9.95
2022-11-05T03:48:42.508Z,9.94
2022-11-05T03:51:20.442Z,9.97
2022-11-05T03:53:54.080Z,9.97
2022-11-05T03:56:27.104Z,9.93
2022-11-05T03:58:59.155Z,9.95
2022-11-05T04:01:27.855Z,9.91
2022-11-05T04:03:55.743Z,9.98
2022-11-05T04:06:42.849Z,9.96
2022-11-05T04:09:29.377Z,10.08
2022-11-05T04:12:14.827Z,9.82
2022-11-05T04:14:42.678Z,10.08
2022-11-05T04:17:09.928Z,9.81
2022-11-05T04:19:56.752Z,9.77
2022-11-05T04:22:45.529Z,9.93
2022-11-05T04:25:14.927Z,9.84
2022-11-05T04:27:42.824Z,9.77
2022-11-05T04:30:19.299Z,9.74
2022-11-05T04:32:58.316Z,9.78
2022-11-05T04:35:26.791Z,9.77
2022-11-05T04:37:56.058Z,9.69
2022-11-05T04:40:24.144Z,9.54
2022-11-05T04:42:51.994Z,9.65
2022-11-05T04:45:19.799Z,9.67
2022-11-05T04:47:47.663Z,9.73
2022-11-05T04:50:15.628Z,9.60
2022-11-05T04:52:43.632Z,9.48
2022-11-05T04:55:12.947Z,9.47
2022-11-05T04:57:41.322Z,9.55
2022-11-05T05:00:11.110Z,9.47
2022-11-05T05:02:39.221Z,9.47
2022-11-05T05:05:07.401Z,9.44
2022-11-05T05:07:35.852Z,9.50
2022-11-05T05:10:06.262Z,9.59
2022-11-05T05:12:35.801Z,9.66
2022-11-05T05:15:03.916Z,9.68
2022-11-05T05:17:31.765Z,9.40
2022-11-05T05:20:17.303Z,9.23
2022-11-05T05:22:45.231Z,9.45
2022-11-05T05:25:13.111Z,9.49
2022-11-05T05:27:42.389Z,9.25
2022-11-05T05:30:11.426Z,9.16
2022-11-05T05:32:39.450Z,9.17
2022-11-05T05:35:07.918Z,9.19
2022-11-05T05:37:35.812Z,9.33
2022-11-05T05:40:03.754Z,9.34
2022-11-05T05:42:31.571Z,9.60
2022-11-05T05:45:00.854Z,9.65
2022-11-05T05:47:28.734Z,9.63
2022-11-05T05:49:56.585Z,9.66
2022-11-05T05:52:24.438Z,9.83
2022-11-05T05:54:52.273Z,9.73
2022-11-05T05:57:20.143Z,9.82
2022-11-05T05:59:47.987Z,9.77
2022-11-05T06:02:19.284Z,9.77
2022-11-05T06:04:47.176Z,9.87
2022-11-05T06:07:15.313Z,9.71
2022-11-05T06:09:43.207Z,9.55
2022-11-05T06:12:11.047Z,9.73
2022-11-05T06:14:38.883Z,9.74
2022-11-05T06:17:07.894Z,9.73
2022-11-05T06:19:37.042Z,9.96
2022-11-05T06:22:04.905Z,9.77
2022-11-05T06:24:32.837Z,9.79
2022-11-05T06:27:00.729Z,9.72
2022-11-05T06:29:28.514Z,9.76
2022-11-05T06:31:56.484Z,9.81
2022-11-05T06:34:24.532Z,9.74
2022-11-05T06:36:53.681Z,9.80
2022-11-05T06:39:21.946Z,9.69
2022-11-05T06:42:17.823Z,9.50
2022-11-05T06:44:37.650Z,9.71
2022-11-05T06:47:05.682Z,9.69
2022-11-05T06:49:33.568Z,9.83
2022-11-05T06:52:02.858Z,9.71
2022-11-05T06:54:30.655Z,9.69
2022-11-05T06:56:58.443Z,9.96
2022-11-05T06:59:26.307Z,9.95
2022-11-05T07:01:54.281Z,9.93
2022-11-05T07:04:22.062Z,9.91
2022-11-05T07:06:49.922Z,10.10
2022-11-05T07:09:19.137Z,10.01
2022-11-05T07:11:47.096Z,9.90
2022-11-05T07:14:14.851Z,9.84
2022-11-05T07:16:42.629Z,9.61
2022-11-05T07:19:10.518Z,9.88
2022-11-05T07:21:38.306Z,9.74
2022-11-05T07:24:07.127Z,9.70
2022-11-05T07:26:36.584Z,9.65
2022-11-05T07:29:04.575Z,9.43
2022-11-05T07:31:32.420Z,9.70
2022-11-05T07:34:00.988Z,9.74
2022-11-05T07:36:28.786Z,9.71
2022-11-05T07:39:00.314Z,9.76
2022-11-05T07:41:29.341Z,9.64
2022-11-05T07:43:58.576Z,9.78
2022-11-05T07:46:26.391Z,9.54
2022-11-05T07:48:54.139Z,9.68
2022-11-05T07:51:22.109Z,9.78
2022-11-05T07:53:49.994Z,9.50
2022-11-05T07:56:17.884Z,9.66
2022-11-05T07:58:45.675Z,9.65
2022-11-05T08:01:14.875Z,9.44
2022-11-05T08:03:42.836Z,9.32
2022-11-05T08:06:10.728Z,9.28
2022-11-05T08:08:38.479Z,9.35
2022-11-05T08:11:07.704Z,9.51
2022-11-05T08:13:35.680Z,9.39
2022-11-05T08:16:04.590Z,9.39
2022-11-05T08:18:34.104Z,9.33
2022-11-05T08:21:03.949Z,9.60
2022-11-05T08:23:33.570Z,9.39
2022-11-05T08:26:04.524Z,9.60
2022-11-05T08:28:32.834Z,9.58
2022-11-05T08:31:00.671Z,9.57
2022-11-05T08:33:31.244Z,9.63
2022-11-05T08:36:04.092Z,9.69
2022-11-05T08:38:32.099Z,9.60
2022-11-05T08:41:00.472Z,9.50
2022-11-05T08:43:28.356Z,9.53
2022-11-05T08:45:56.109Z,9.64
2022-11-05T08:48:23.917Z,9.72
2022-11-05T08:50:51.749Z,9.83
2022-11-05T08:53:21.413Z,9.78
2022-11-05T08:55:51.181Z,10.04
2022-11-05T08:58:20.798Z,10.02
2022-11-05T09:00:50.412Z,10.01
2022-11-05T09:03:18.572Z,9.92
2022-11-05T09:05:46.365Z,9.89
2022-11-05T09:08:15.807Z,9.69
2022-11-05T09:10:46.051Z,9.70
2022-11-05T09:13:18.770Z,9.77
2022-11-05T09:15:48.215Z,9.79
2022-11-05T09:18:16.192Z,9.97
2022-11-05T09:20:44.599Z,9.92
2022-11-05T09:23:14.219Z,9.91
2022-11-05T09:25:42.228Z,10.23
2022-11-05T09:28:16.744Z,9.96
2022-11-05T09:30:46.776Z,9.84
2022-11-05T09:33:15.843Z,9.98
2022-11-05T09:35:43.946Z,9.90
2022-11-05T09:38:12.013Z,9.87
2022-11-05T09:40:45.892Z,9.89
2022-11-05T09:43:19.677Z,10.01
2022-11-05T09:45:50.154Z,9.84
2022-11-05T09:48:20.155Z,10.05
2022-11-05T09:50:49.423Z,10.07
2022-11-05T09:53:20.340Z,10.02
2022-11-05T09:55:50.739Z,10.24
2022-11-05T09:58:28.725Z,10.22
2022-11-05T10:00:58.284Z,10.07
2022-11-05T10:03:29.935Z,10.08
2022-11-05T10:06:06.894Z,10.27
2022-11-05T10:08:41.620Z,10.30
2022-11-05T10:11:15.382Z,10.33
2022-11-05T10:13:48.394Z,10.53
2022-11-05T10:16:24.660Z,10.37
2022-11-05T10:18:56.971Z,10.32
2022-11-05T10:21:51.410Z,10.42
2022-11-05T10:24:16.308Z,10.46
2022-11-05T10:26:48.263Z,10.54
2022-11-05T10:29:26.133Z,11.17
2022-11-05T10:31:55.469Z,10.76
2022-11-05T10:34:27.257Z,10.70
2022-11-05T10:36:55.473Z,11.10
2022-11-05T10:39:24.456Z,11.37
2022-11-05T10:42:05.685Z,10.91
2022-11-05T10:44:41.209Z,11.25
2022-11-05T10:47:33.605Z,10.66
2022-11-05T10:50:03.437Z,10.28
2022-11-05T10:52:36.854Z,10.55
2022-11-05T10:55:14.902Z,10.68
2022-11-05T10:57:44.174Z,10.73
2022-11-05T11:00:29.214Z,11.13
2022-11-05T11:03:00.560Z,11.09
2022-11-05T11:05:32.499Z,10.86
2022-11-05T11:08:19.366Z,10.82
2022-11-05T11:10:50.829Z,11.12
2022-11-05T11:13:23.504Z,11.24
2022-11-05T11:15:53.150Z,11.50
2022-11-05T11:18:34.704Z,11.42
2022-11-05T11:21:13.546Z,11.99
2022-11-05T11:23:42.782Z,12.00
2022-11-05T11:26:12.386Z,11.82
2022-11-05T11:28:45.027Z,12.13
2022-11-05T11:31:16.781Z,11.56
2022-11-05T11:33:50.608Z,12.20
2022-11-05T11:36:20.889Z,12.40
2022-11-05T11:38:49.268Z,12.25
2022-11-05T11:41:26.455Z,11.91
2022-11-05T11:43:57.078Z,11.87
2022-11-05T11:46:26.882Z,11.52
2022-11-05T11:48:54.724Z,11.91
2022-11-05T11:51:32.789Z,11.69
2022-11-05T11:54:02.625Z,11.81
2022-11-05T11:56:32.488Z,11.39
2022-11-05T11:59:04.261Z,11.51
2022-11-05T12:02:00.204Z,11.90
2022-11-05T12:04:54.507Z,12.28
2022-11-05T12:07:32.829Z,12.24
2022-11-05T12:10:17.481Z,11.82
2022-11-05T12:12:56.015Z,12.28
2022-11-05T12:15:33.887Z,11.79
2022-11-05T12:18:05.564Z,11.96
2022-11-05T12:20:57.939Z,12.06
2022-11-05T12:23:41.066Z,11.32
2022-11-05T12:26:17.704Z,11.40
2022-11-05T12:32:00.172Z,11.25
2022-11-05T12:34:42.579Z,11.32
2022-11-05T12:37:19.463Z,11.35
2022-11-05T12:40:10.394Z,11.64
2022-11-05T12:42:49.268Z,11.32
2022-11-05T12:45:30.777Z,11.35
2022-11-05T12:48:14.669Z,11.15
2022-11-05T12:50:48.885Z,11.30
2022-11-05T12:53:47.456Z,11.41
2022-11-05T12:56:21.849Z,11.22
2022-11-05T12:58:56.018Z,11.43
2022-11-05T13:01:32.200Z,11.09
2022-11-05T13:04:06.652Z,11.21
2022-11-05T13:06:40.349Z,11.44
2022-11-05T13:09:15.145Z,11.78
2022-11-05T13:11:49.307Z,11.93
2022-11-05T13:14:21.555Z,12.08
2022-11-05T13:16:53.386Z,11.99
2022-11-05T13:19:25.805Z,12.24
2022-11-05T13:22:00.034Z,11.85
2022-11-05T13:24:35.632Z,12.30
2022-11-05T13:27:16.348Z,12.00
2022-11-05T13:29:49.878Z,12.14
2022-11-05T13:32:28.308Z,12.09
2022-11-05T13:34:57.137Z,12.13
2022-11-05T13:37:46.418Z,12.33
2022-11-05T13:40:18.077Z,12.14
2022-11-05T13:43:13.377Z,12.58
2022-11-05T13:46:13.535Z,12.41
2022-11-05T13:49:00.953Z,11.58
2022-11-05T13:51:54.028Z,11.49
2022-11-05T13:54:47.285Z,11.22
2022-11-05T13:57:35.992Z,11.20
2022-11-05T14:00:12.506Z,10.94
2022-11-05T14:02:44.054Z,10.89
2022-11-05T14:05:24.272Z,10.95
2022-11-05T14:07:54.197Z,10.75
2022-11-05T14:10:31.432Z,10.66
2022-11-05T14:13:17.189Z,10.67
2022-11-05T14:15:56.998Z,10.54
2022-11-05T14:18:40.832Z,10.38
2022-11-05T14:21:31.756Z,10.61
2022-11-05T14:24:00.971Z,10.76
2022-11-05T14:26:32.198Z,10.68
2022-11-05T14:29:40.419Z,10.84
2022-11-05T14:32:27.045Z,10.79
2022-11-05T14:35:01.593Z,11.27
2022-11-05T14:37:37.009Z,11.06
2022-11-05T14:40:28.184Z,11.29
2022-11-05T14:43:00.061Z,11.30
2022-11-05T14:45:31.777Z,11.37
2022-11-05T14:48:01.276Z,10.92
2022-11-05T14:50:37.488Z,10.58
2022-11-05T14:53:13.958Z,10.80
2022-11-05T14:55:44.589Z,11.25
2022-11-05T14:58:36.883Z,11.35
2022-11-05T15:01:07.408Z,11.46
2022-11-05T15:03:47.407Z,11.58
2022-11-05T15:06:33.777Z,11.52
2022-11-05T15:09:28.696Z,11.51
2022-11-05T15:12:09.517Z,11.50
2022-11-05T15:14:42.731Z,11.06
2022-11-05T15:17:19.240Z,11.52
2022-11-05T15:19:48.213Z,11.41
2022-11-05T15:22:27.877Z,11.40
2022-11-05T15:24:56.723Z,11.40
2022-11-05T15:27:41.498Z,11.19
2022-11-05T15:30:18.174Z,11.43
2022-11-05T15:32:46.473Z,11.34
2022-11-05T15:35:23.541Z,11.29
2022-11-05T15:37:58.802Z,11.30
2022-11-05T15:40:31.709Z,11.22
2022-11-05T15:43:09.766Z,11.26
2022-11-05T15:45:39.204Z,11.13
2022-11-05T15:48:19.203Z,11.17
2022-11-05T15:50:47.340Z,11.05
2022-11-05T15:53:44.205Z,10.98
2022-11-05T15:56:13.097Z,10.93
2022-11-05T15:58:48.145Z,10.66
2022-11-05T16:01:27.945Z,10.77
2022-11-05T16:03:59.063Z,10.54
2022-11-05T16:06:30.922Z,10.28
2022-11-05T16:08:58.720Z,10.56
2022-11-05T16:11:27.694Z,10.27
2022-11-05T16:14:15.155Z,10.39
2022-11-05T16:16:45.304Z,10.49
2022-11-05T16:19:40.218Z,10.26
2022-11-05T16:22:08.980Z,9.88
2022-11-05T16:24:36.867Z,10.22
2022-11-05T16:27:05.747Z,10.15
2022-11-05T16:29:35.781Z,10.08
2022-11-05T16:32:07.467Z,9.99
2022-11-05T16:34:38.942Z,10.03
2022-11-05T16:37:09.040Z,9.93
2022-11-05T16:39:36.975Z,9.70
2022-11-05T16:42:36.628Z,9.96
2022-11-05T16:45:04.857Z,9.71
2022-11-05T16:47:34.063Z,9.89
2022-11-05T16:50:02.194Z,9.88
2022-11-05T16:52:30.489Z,9.84
2022-11-05T16:54:58.345Z,9.88
2022-11-05T16:57:28.498Z,9.65
2022-11-05T16:59:56.956Z,9.67
2022-11-05T17:02:25.012Z,9.82
2022-11-05T17:04:54.300Z,9.50
2022-11-05T17:07:22.162Z,9.68
2022-11-05T17:09:49.988Z,9.71
2022-11-05T17:12:17.911Z,9.61
2022-11-05T17:14:45.708Z,9.47
2022-11-05T17:17:13.529Z,9.46
2022-11-05T17:19:42.524Z,9.53
2022-11-05T17:22:11.924Z,9.42
2022-11-05T17:24:39.903Z,9.40
2022-11-05T17:27:07.779Z,9.49
2022-11-05T17:29:35.968Z,9.51
2022-11-05T17:32:06.077Z,9.38
2022-11-05T17:34:33.956Z,9.35
2022-11-05T17:37:01.789Z,9.30
2022-11-05T17:39:32.006Z,9.26
2022-11-05T17:41:59.913Z,9.31
2022-11-05T17:44:27.720Z,9.23
2022-11-05T17:46:55.541Z,9.11
2022-11-05T17:49:23.359Z,9.32
2022-11-05T17:51:51.192Z,9.20
2022-11-05T17:54:18.981Z,9.32
2022-11-05T17:56:48.167Z,9.20
2022-11-05T17:59:21.659Z,9.14
2022-11-05T18:01:49.667Z,9.04
2022-11-05T18:04:18.121Z,9.23
2022-11-05T18:06:45.946Z,9.00
2022-11-05T18:09:14.254Z,9.15
2022-11-05T18:11:42.639Z,9.12
2022-11-05T18:14:11.971Z,9.18
2022-11-05T18:16:40.012Z,9.18
2022-11-05T18:19:07.850Z,9.11
2022-11-05T18:21:35.655Z,9.15
2022-11-05T18:24:04.512Z,8.96
2022-11-05T18:26:32.658Z,8.83
2022-11-05T18:29:01.433Z,8.89
2022-11-05T18:31:31.051Z,8.93
2022-11-05T18:34:00.274Z,8.99
2022-11-05T18:36:30.459Z,8.68
2022-11-05T18:38:59.189Z,8.65
2022-11-05T18:41:27.121Z,8.75
2022-11-05T18:43:59.693Z,8.73
2022-11-05T18:46:55.953Z,8.65
2022-11-05T18:49:16.929Z,8.62
2022-11-05T18:51:45.162Z,8.64
2022-11-05T18:54:13.489Z,8.59
2022-11-05T18:56:45.456Z,8.40
2022-11-05T19:02:02.017Z,8.46
2022-11-05T19:04:31.303Z,8.53
2022-11-05T19:07:04.435Z,8.36
2022-11-05T19:09:32.807Z,8.43
2022-11-05T19:12:00.948Z,8.42
2022-11-05T19:14:30.028Z,8.43
2022-11-05T19:16:58.251Z,8.36
2022-11-05T19:19:26.419Z,8.43
2022-11-05T19:21:55.874Z,8.32
2022-11-05T19:24:23.785Z,8.12
2022-11-05T19:26:51.610Z,8.16
2022-11-05T19:29:19.490Z,8.34
2022-11-05T19:31:47.307Z,8.27
2022-11-05T19:34:15.191Z,7.90
2022-11-05T19:36:43.373Z,8.18
2022-11-05T19:39:15.313Z,8.39
2022-11-05T19:41:43.318Z,8.08
2022-11-05T19:44:11.567Z,8.23
2022-11-05T19:46:39.569Z,8.21
2022-11-05T19:49:07.339Z,8.07
2022-11-05T19:51:35.332Z,7.92
2022-11-05T19:54:04.895Z,7.94
2022-11-05T19:56:36.075Z,7.96
2022-11-05T19:59:04.401Z,7.74
2022-11-05T20:01:32.521Z,7.69
2022-11-05T20:04:02.512Z,7.88
2022-11-05T20:06:32.987Z,7.60
2022-11-05T20:11:54.310Z,7.47
2022-11-05T20:14:22.506Z,7.47
2022-11-05T20:16:51.495Z,7.29
2022-11-05T20:19:22.101Z,7.57
2022-11-05T20:21:50.203Z,7.52
2022-11-05T20:24:24.873Z,7.49
2022-11-05T20:26:56.212Z,7.52
2022-11-05T20:29:29.073Z,7.58
2022-11-05T20:32:02.392Z,7.51
2022-11-05T20:34:30.600Z,7.42
2022-11-05T20:36:58.445Z,7.25
2022-11-05T20:39:26.507Z,7.32
2022-11-05T20:41:56.840Z,7.30
2022-11-05T20:44:24.893Z,7.36
2022-11-05T20:46:52.756Z,7.34
2022-11-05T20:49:25.180Z,7.47
2022-11-05T20:51:53.802Z,7.45
2022-11-05T20:54:21.894Z,7.45
2022-11-05T20:56:49.695Z,7.34
2022-11-05T20:59:19.482Z,7.12
2022-11-05T21:01:47.432Z,7.25
2022-11-05T21:04:15.342Z,7.24
2022-11-05T21:06:43.105Z,7.14
2022-11-05T21:09:10.919Z,6.87
2022-11-05T21:11:52.658Z,6.76
2022-11-05T21:14:21.923Z,7.06
2022-11-05T21:16:49.732Z,7.23
2022-11-05T21:19:17.603Z,6.57
2022-11-05T21:21:45.505Z,6.72
2022-11-05T21:24:13.288Z,6.67
2022-11-05T21:26:41.129Z,6.92
2022-11-05T21:29:08.971Z,7.07
2022-11-05T21:31:39.804Z,7.17
2022-11-05T21:34:07.733Z,7.03
2022-11-05T21:36:35.705Z,7.05
2022-11-05T21:39:05.694Z,7.09
2022-11-05T21:41:37.060Z,7.08
2022-11-05T21:44:04.995Z,7.00
2022-11-05T21:46:32.939Z,6.91
2022-11-05T21:49:02.392Z,6.98
2022-11-05T21:51:47.730Z,6.90
2022-11-05T21:54:33.185Z,6.85
2022-11-05T21:57:18.721Z,6.79
2022-11-05T21:59:51.387Z,6.66
2022-11-05T22:02:21.286Z,7.00
2022-11-05T22:04:52.292Z,7.18
2022-11-05T22:07:21.849Z,6.98
2022-11-05T22:09:49.905Z,6.96
2022-11-05T22:12:18.125Z,6.85
2022-11-05T22:14:46.040Z,6.94
2022-11-05T22:17:14.937Z,6.97
2022-11-05T22:19:42.811Z,6.96
2022-11-05T22:22:13.003Z,6.88
2022-11-05T22:24:41.651Z,7.11
2022-11-05T22:27:12.599Z,7.00
2022-11-05T22:29:40.920Z,7.10
2022-11-05T22:32:09.100Z,6.97
2022-11-05T22:34:36.965Z,6.90
2022-11-05T22:37:05.195Z,6.99
2022-11-05T22:39:34.566Z,6.90
2022-11-05T22:42:08.049Z,7.01
2022-11-05T22:44:36.702Z,6.70
2022-11-05T22:47:05.378Z,6.61
2022-11-05T22:49:33.918Z,6.72
2022-11-05T22:52:01.808Z,6.23
2022-11-05T22:54:31.721Z,6.10
2022-11-05T22:57:03.096Z,6.41
2022-11-05T22:59:30.959Z,6.23
2022-11-05T23:01:58.900Z,6.10
2022-11-05T23:04:26.824Z,6.06
2022-11-05T23:07:12.298Z,6.00
2022-11-05T23:09:57.830Z,6.12
2022-11-05T23:12:28.841Z,6.36
2022-11-05T23:14:58.983Z,6.48
2022-11-05T23:17:45.333Z,6.61
2022-11-05T23:20:33.255Z,6.32
2022-11-05T23:23:18.803Z,6.38
2022-11-05T23:25:46.649Z,6.37
2022-11-05T23:28:21.200Z,6.31
2022-11-05T23:31:06.612Z,6.07
2022-11-05T23:33:35.972Z,5.77
2022-11-05T23:36:21.767Z,5.81
2022-11-05T23:38:50.479Z,5.84
2022-11-05T23:41:35.751Z,5.91
2022-11-05T23:44:22.808Z,5.71
2022-11-05T23:47:08.231Z,5.70
2022-11-05T23:49:36.067Z,5.85
2022-11-05T23:52:04.354Z,5.82
2022-11-05T23:54:32.090Z,5.71
2022-11-05T23:56:59.887Z,5.72
2022-11-05T23:59:29.158Z,5.64
